Time;durP1;ratioP1;P1;durP2;ratioP2;P2;SDS_P1;SDS_P2;PMS_P1;PMS_P2;Temp;Humidity;BMP_temperature;BMP_pressure;BME280_temperature;BME280_humidity;BME280_pressure;Samples;Min_cycle;Max_cycle;Signal;HPM_P1;HPM_P2
2021/05/27 00:01:11;;;;;;;9.68;3.08;;;11.50;99.90;;;;;;4750713;30;20763;-86
2021/05/27 00:03:37;;;;;;;3.73;1.43;;;11.40;99.90;;;;;;4753190;30;20199;-86
2021/05/27 00:06:02;;;;;;;1.98;1.52;;;11.40;99.90;;;;;;4754741;30;20272;-86
2021/05/27 00:08:28;;;;;;;3.72;2.00;;;11.40;99.90;;;;;;4754356;30;20191;-86
2021/05/27 00:10:53;;;;;;;3.28;1.85;;;11.40;99.90;;;;;;4752965;30;20323;-86
2021/05/27 00:13:19;;;;;;;3.25;1.60;;;11.30;99.90;;;;;;4737636;30;20644;-86
2021/05/27 00:15:45;;;;;;;4.65;1.77;;;11.30;99.90;;;;;;4738098;30;20244;-86
2021/05/27 00:18:11;;;;;;;3.35;2.03;;;11.20;99.90;;;;;;4737859;30;20205;-86
2021/05/27 00:20:37;;;;;;;4.00;2.07;;;11.20;99.90;;;;;;4752928;30;20195;-86
2021/05/27 00:23:03;;;;;;;5.70;2.22;;;11.20;99.90;;;;;;4737585;30;20285;-87
2021/05/27 00:25:30;;;;;;;5.95;1.92;;;11.10;99.90;;;;;;4754059;30;20210;-86
2021/05/27 00:27:56;;;;;;;3.50;2.15;;;11.10;99.90;;;;;;4753041;30;20683;-85
2021/05/27 00:30:22;;;;;;;6.03;2.20;;;11.10;99.90;;;;;;4737860;30;20213;-86
2021/05/27 00:32:49;;;;;;;3.20;2.00;;;;;;;;;;4752645;30;20720;-86
2021/05/27 00:35:15;;;;;;;4.23;1.93;;;11.10;99.90;;;;;;4752593;30;20187;-86
2021/05/27 00:37:41;;;;;;;4.20;2.17;;;11.10;99.90;;;;;;4752566;30;20227;-86
2021/05/27 00:40:09;;;;;;;6.53;2.10;;;11.00;99.90;;;;;;4737413;30;20676;-84
2021/05/27 00:42:35;;;;;;;2.83;1.87;;;11.00;99.90;;;;;;4752472;30;20230;-85
2021/05/27 00:45:14;;;;;;;5.67;2.60;;;11.00;99.90;;;;;;4753598;30;20645;-85
2021/05/27 00:47:41;;;;;;;1.80;1.52;;;11.00;99.90;;;;;;4753696;30;20243;-85
2021/05/27 00:50:10;;;;;;;3.08;1.77;;;11.00;99.90;;;;;;4753456;30;20189;-85
2021/05/27 00:52:36;;;;;;;5.03;1.87;;;10.90;99.90;;;;;;4752462;30;20362;-85
2021/05/27 00:55:04;;;;;;;4.85;2.00;;;10.90;99.90;;;;;;4752228;30;20702;-84
2021/05/27 00:57:32;;;;;;;3.85;2.20;;;10.90;99.90;;;;;;4753097;30;20720;-84
2021/05/27 00:59:59;;;;;;;4.43;2.00;;;10.80;99.90;;;;;;4754609;30;20222;-84
2021/05/27 01:02:25;;;;;;;4.37;2.07;;;10.80;99.90;;;;;;4754237;30;20578;-84
2021/05/27 01:04:51;;;;;;;4.07;2.38;;;10.70;99.90;;;;;;4759563;30;20211;-84
2021/05/27 01:07:17;;;;;;;2.83;2.13;;;10.70;99.90;;;;;;4743853;30;20741;-85
2021/05/27 01:09:43;;;;;;;3.63;2.23;;;10.60;99.90;;;;;;4756383;30;20222;-85
2021/05/27 01:12:10;;;;;;;6.13;2.17;;;10.60;99.90;;;;;;4742774;30;20222;-86
2021/05/27 01:17:23;;;;;;;9.13;2.27;;;10.50;99.90;;;;;;4753428;30;20205;-84
2021/05/27 01:19:50;;;;;;;5.47;2.23;;;10.50;99.90;;;;;;4752016;30;20194;-85
2021/05/27 01:22:17;;;;;;;4.77;2.10;;;10.50;99.90;;;;;;4736305;30;20190;-85
2021/05/27 01:24:43;;;;;;;3.40;2.40;;;10.40;99.90;;;;;;4735517;30;20191;-85
2021/05/27 01:27:09;;;;;;;2.07;1.83;;;10.40;99.90;;;;;;4719803;30;20264;-86
2021/05/27 01:29:34;;;;;;;4.60;2.00;;;10.30;99.90;;;;;;4735518;30;20596;-85
2021/05/27 01:32:00;;;;;;;3.53;2.10;;;10.30;99.90;;;;;;4733937;30;20226;-85
2021/05/27 01:34:26;;;;;;;4.77;2.20;;;10.30;99.90;;;;;;4719410;30;20199;-85
2021/05/27 01:36:51;;;;;;;4.60;2.10;;;10.30;99.90;;;;;;4735347;30;20262;-84
2021/05/27 01:39:17;;;;;;;5.03;2.40;;;;;;;;;;4719249;30;20599;-85
2021/05/27 01:41:43;;;;;;;4.87;2.10;;;10.30;99.90;;;;;;4705110;30;20196;-85
2021/05/27 01:44:09;;;;;;;2.43;1.80;;;10.30;99.90;;;;;;4705947;30;20198;-84
2021/05/27 01:46:35;;;;;;;3.00;2.00;;;10.40;99.90;;;;;;4738998;30;20724;-85
2021/05/27 01:49:02;;;;;;;3.60;2.30;;;10.40;99.90;;;;;;4708732;30;20561;-84
2021/05/27 01:51:28;;;;;;;6.05;3.00;;;10.40;99.90;;;;;;4723179;30;20210;-84
2021/05/27 01:53:54;;;;;;;6.03;2.47;;;10.50;99.90;;;;;;4708290;30;20195;-84
2021/05/27 01:56:19;;;;;;;4.60;2.50;;;10.50;99.90;;;;;;4738637;30;20649;-84
2021/05/27 01:58:45;;;;;;;6.97;2.93;;;10.50;99.90;;;;;;4737623;30;20234;-84
2021/05/27 02:01:11;;;;;;;2.83;2.27;;;10.50;99.90;;;;;;4722943;30;20294;-88
2021/05/27 02:03:36;;;;;;;4.97;1.83;;;10.50;99.90;;;;;;4738672;30;20187;-84
2021/05/27 02:06:02;;;;;;;3.60;2.17;;;10.50;99.90;;;;;;4722792;30;20336;-84
2021/05/27 02:08:28;;;;;;;7.00;2.63;;;10.50;99.90;;;;;;4721932;30;20219;-84
2021/05/27 02:10:54;;;;;;;5.67;2.30;;;10.40;99.90;;;;;;4722478;30;20726;-84
2021/05/27 02:13:19;;;;;;;4.80;2.30;;;10.30;99.90;;;;;;4736497;30;20624;-85
2021/05/27 02:15:45;;;;;;;5.43;2.53;;;10.30;99.90;;;;;;4722289;30;20187;-85
2021/05/27 02:18:11;;;;;;;6.00;2.30;;;10.20;99.90;;;;;;4722072;30;20196;-84
2021/05/27 02:20:37;;;;;;;5.20;2.03;;;10.20;99.90;;;;;;4707670;30;20199;-85
2021/05/27 02:23:03;;;;;;;4.17;2.40;;;10.20;99.90;;;;;;4742878;30;20238;-85
2021/05/27 02:25:28;;;;;;;5.97;1.93;;;10.10;99.90;;;;;;4725064;30;20612;-85
2021/05/27 02:27:55;;;;;;;3.53;1.93;;;10.10;99.90;;;;;;4755138;30;20199;-85
2021/05/27 02:30:22;;;;;;;21.30;12.30;;;10.20;99.90;;;;;;4739906;30;20626;-84
2021/05/27 02:32:47;;;;;;;9.93;6.00;;;10.30;99.90;;;;;;4740044;30;20364;-84
2021/05/27 02:35:13;;;;;;;3.70;2.63;;;10.40;99.90;;;;;;4739584;30;20670;-82
2021/05/27 02:37:39;;;;;;;2.93;2.03;;;10.50;99.90;;;;;;4739161;30;20194;-84
2021/05/27 02:40:06;;;;;;;2.50;2.10;;;10.70;99.90;;;;;;4755647;30;20670;-83
2021/05/27 02:42:32;;;;;;;3.47;1.37;;;10.90;99.90;;;;;;4739140;30;20578;-83
2021/05/27 02:44:58;;;;;;;4.30;1.67;;;11.10;99.90;;;;;;4755155;30;20190;-83
2021/05/27 02:47:25;;;;;;;2.23;1.73;;;11.20;99.90;;;;;;4739058;30;20675;-84
2021/05/27 02:49:51;;;;;;;3.85;2.40;;;11.30;99.90;;;;;;4756434;30;20277;-83
2021/05/27 02:52:17;;;;;;;5.32;2.13;;;11.30;99.90;;;;;;4724379;30;20321;-84
2021/05/27 02:54:42;;;;;;;5.13;2.25;;;11.40;99.90;;;;;;4739635;30;20657;-84
2021/05/27 02:57:08;;;;;;;7.83;2.20;;;11.30;99.90;;;;;;4754156;30;20277;-84
2021/05/27 02:59:34;;;;;;;7.50;2.03;;;11.30;99.90;;;;;;4738923;30;20555;-85
2021/05/27 03:02:00;;;;;;;6.50;2.47;;;11.30;99.90;;;;;;4724706;30;20252;-84
2021/05/27 03:04:25;;;;;;;3.43;2.17;;;11.20;99.90;;;;;;4754715;30;20186;-85
2021/05/27 03:06:51;;;;;;;8.17;2.83;;;11.20;99.90;;;;;;4739038;30;20205;-84
2021/05/27 03:09:17;;;;;;;4.45;2.42;;;11.10;99.90;;;;;;4754176;30;20429;-84
2021/05/27 03:11:43;;;;;;;3.28;2.25;;;11.10;99.90;;;;;;4738528;30;20214;-84
2021/05/27 03:14:09;;;;;;;6.32;2.38;;;;;;;;;;4738954;30;20191;-84
2021/05/27 03:16:34;;;;;;;5.57;2.38;;;11.10;99.90;;;;;;4738729;30;20187;-85
2021/05/27 03:19:00;;;;;;;6.78;2.05;;;11.00;99.90;;;;;;4738779;30;20547;-83
2021/05/27 03:21:26;;;;;;;5.00;2.17;;;11.00;99.90;;;;;;4754280;30;20214;-84
2021/05/27 03:23:52;;;;;;;2.90;2.17;;;11.00;99.90;;;;;;4723772;30;20335;-83
2021/05/27 03:26:17;;;;;;;5.53;2.10;;;11.00;99.90;;;;;;4724332;30;20360;-84
2021/05/27 03:28:43;;;;;;;5.32;2.45;;;11.10;99.90;;;;;;4754462;30;20549;-84
2021/05/27 03:31:09;;;;;;;2.92;1.98;;;11.10;99.90;;;;;;4738517;30;20191;-82
2021/05/27 03:33:35;;;;;;;3.27;2.23;;;11.00;99.90;;;;;;4738152;30;20203;-83
2021/05/27 03:36:00;;;;;;;2.75;1.90;;;11.20;99.90;;;;;;4754116;30;20539;-82
2021/05/27 03:38:26;;;;;;;4.97;2.23;;;11.10;99.90;;;;;;4754515;30;20198;-83
2021/05/27 03:40:52;;;;;;;7.20;2.27;;;11.20;99.90;;;;;;4743847;30;20191;-83
2021/05/27 03:43:17;;;;;;;2.60;1.80;;;11.20;99.90;;;;;;4751166;30;20227;-83
2021/05/27 03:45:43;;;;;;;3.25;2.22;;;11.20;99.90;;;;;;4755006;30;20594;-84
2021/05/27 03:48:09;;;;;;;4.72;2.20;;;11.10;99.90;;;;;;4720614;30;20541;-84
2021/05/27 03:50:36;;;;;;;4.95;1.85;;;11.20;99.90;;;;;;4734028;30;20256;-85
2021/05/27 03:53:04;;;;;;;6.60;1.77;;;11.20;99.90;;;;;;4730476;30;20225;-85
2021/05/27 03:55:30;;;;;;;4.60;2.17;;;11.50;99.90;;;;;;4747145;30;20276;-84
2021/05/27 03:57:56;;;;;;;3.17;2.13;;;11.20;99.90;;;;;;4735292;30;20215;-84
2021/05/27 04:03:09;;;;;;;3.23;2.03;;;11.20;99.90;;;;;;4751639;30;20213;-84
2021/05/27 04:08:21;;;;;;;5.10;1.90;;;11.40;99.90;;;;;;4737841;30;20870;-84
2021/05/27 04:10:47;;;;;;;5.25;2.00;;;11.40;99.90;;;;;;4735634;30;20206;-85
2021/05/27 04:13:13;;;;;;;3.03;2.10;;;11.50;99.90;;;;;;4736301;30;20223;-84
2021/05/27 04:15:39;;;;;;;4.40;1.77;;;11.50;99.90;;;;;;4735987;30;20279;-84
2021/05/27 04:18:16;;;;;;;5.20;1.90;;;11.60;99.90;;;;;;4752015;30;20200;-84
2021/05/27 04:20:46;;;;;;;5.47;2.37;;;11.70;99.90;;;;;;4737092;30;20206;-86
2021/05/27 04:23:15;;;;;;;4.00;2.30;;;11.70;99.90;;;;;;4752129;30;20273;-85
2021/05/27 04:25:42;;;;;;;6.78;2.10;;;11.80;99.90;;;;;;4751504;30;20201;-86
2021/05/27 04:28:08;;;;;;;5.03;2.25;;;11.90;99.90;;;;;;4752144;30;20277;-85
2021/05/27 04:31:08;;;;;;;8.05;2.17;;;11.90;99.90;;;;;;4751978;30;20199;-85
2021/05/27 04:33:22;;;;;;;3.47;1.98;;;12.00;99.90;;;;;;4738662;30;20728;-85
2021/05/27 04:35:48;;;;;;;8.05;2.00;;;12.00;99.90;;;;;;4736088;30;20228;-85
2021/05/27 04:38:15;;;;;;;3.38;2.00;;;12.10;99.90;;;;;;4735868;30;20289;-85
2021/05/27 04:40:45;;;;;;;5.35;2.50;;;12.10;99.90;;;;;;4717889;30;20202;-85
2021/05/27 04:43:11;;;;;;;6.22;2.40;;;12.20;99.90;;;;;;4751918;30;20194;-86
2021/05/27 04:45:37;;;;;;;3.67;2.28;;;12.30;99.90;;;;;;4750986;30;20191;-85
2021/05/27 04:48:04;;;;;;;11.80;2.58;;;12.30;99.90;;;;;;4735207;30;20679;-85
2021/05/27 04:50:32;;;;;;;12.75;2.45;;;12.30;99.90;;;;;;4751102;30;20650;-85
2021/05/27 04:52:57;;;;;;;11.10;2.20;;;12.40;99.90;;;;;;4734907;30;20677;-84
2021/05/27 04:55:24;;;;;;;5.72;2.45;;;12.50;99.90;;;;;;4748799;30;20209;-84
2021/05/27 04:57:50;;;;;;;6.03;2.00;;;12.60;99.90;;;;;;4747202;30;20201;-85
2021/05/27 05:00:18;;;;;;;6.50;2.47;;;12.60;99.90;;;;;;4733790;30;20289;-85
2021/05/27 05:02:44;;;;;;;14.50;2.60;;;12.60;99.90;;;;;;4745565;30;20191;-86
2021/05/27 05:05:12;;;;;;;8.75;2.58;;;12.60;99.90;;;;;;4737832;30;20205;-88
2021/05/27 05:07:39;;;;;;;4.45;2.40;;;12.70;99.90;;;;;;4747094;30;20198;-86
2021/05/27 05:10:10;;;;;;;9.20;2.70;;;12.80;99.90;;;;;;4743777;30;20186;-88
2021/05/27 05:12:50;;;;;;;5.88;2.13;;;12.90;99.90;;;;;;4758408;30;20222;-85
2021/05/27 05:15:18;;;;;;;9.52;2.20;;;12.90;99.90;;;;;;4744665;30;20182;-86
2021/05/27 05:17:48;;;;;;;5.82;2.20;;;12.80;99.90;;;;;;4757129;30;20259;-86
2021/05/27 05:20:15;;;;;;;10.50;2.50;;;12.90;99.90;;;;;;4771132;30;20179;-86
2021/05/27 05:22:41;;;;;;;7.70;2.70;;;13.00;99.90;;;;;;4773058;30;20241;-86
2021/05/27 05:25:07;;;;;;;4.20;2.53;;;13.00;99.90;;;;;;4729141;30;20182;-87
2021/05/27 05:27:32;;;;;;;8.50;2.60;;;13.00;99.90;;;;;;4758268;30;20191;-88
2021/05/27 05:29:58;;;;;;;11.35;2.33;;;13.10;99.90;;;;;;4757899;30;20199;-85
2021/05/27 05:32:24;;;;;;;9.63;3.03;;;13.20;99.90;;;;;;4743424;30;20234;-86
2021/05/27 05:34:51;;;;;;;10.25;3.47;;;13.20;99.90;;;;;;4721311;30;20207;-84
2021/05/27 05:37:17;;;;;;;7.13;2.83;;;13.30;99.90;;;;;;4736035;30;20274;-85
2021/05/27 05:39:43;;;;;;;8.07;3.08;;;13.30;99.90;;;;;;4736339;30;20598;-85
2021/05/27 05:42:09;;;;;;;6.53;2.22;;;13.30;99.90;;;;;;4752622;30;20195;-84
2021/05/27 05:44:34;;;;;;;5.07;2.65;;;13.30;99.90;;;;;;4721956;30;20553;-85
2021/05/27 05:47:00;;;;;;;7.15;2.92;;;13.30;99.90;;;;;;4751908;30;20199;-84
2021/05/27 05:49:26;;;;;;;8.98;3.10;;;13.40;99.90;;;;;;4751935;30;20545;-84
2021/05/27 05:51:51;;;;;;;13.35;3.15;;;13.40;99.90;;;;;;4736170;30;20226;-84
2021/05/27 05:54:17;;;;;;;8.55;2.55;;;13.40;99.90;;;;;;4721929;30;20204;-84
2021/05/27 05:56:43;;;;;;;7.85;2.95;;;;;;;;;;4736199;30;20676;-84
2021/05/27 05:59:09;;;;;;;6.93;2.67;;;13.60;99.90;;;;;;4721754;30;20216;-86
2021/05/27 06:01:35;;;;;;;9.05;2.97;;;13.60;99.90;;;;;;4751882;30;20658;-83
2021/05/27 06:04:00;;;;;;;9.38;3.03;;;13.80;99.90;;;;;;4706690;30;20207;-83
2021/05/27 06:06:26;;;;;;;7.63;2.60;;;14.00;99.90;;;;;;4720918;30;20653;-83
2021/05/27 06:08:52;;;;;;;7.15;2.33;;;14.20;99.90;;;;;;4735942;30;20285;-83
2021/05/27 06:11:18;;;;;;;5.75;2.20;;;14.30;99.90;;;;;;4735868;30;20277;-84
2021/05/27 06:13:44;;;;;;;7.80;2.80;;;14.50;99.90;;;;;;4736329;30;20194;-84
2021/05/27 06:16:10;;;;;;;9.20;2.55;;;14.70;99.90;;;;;;4736169;30;20182;-86
2021/05/27 06:18:35;;;;;;;4.97;3.00;;;15.00;99.90;;;;;;4752783;30;20262;-84
2021/05/27 06:21:01;;;;;;;11.43;2.55;;;15.20;99.90;;;;;;4727171;30;20664;-85
2021/05/27 06:23:27;;;;;;;6.38;3.03;;;15.10;99.90;;;;;;4751838;30;20234;-85
2021/05/27 06:25:53;;;;;;;6.22;2.88;;;15.20;99.90;;;;;;4736088;30;20183;-84
2021/05/27 06:28:19;;;;;;;3.88;2.33;;;15.30;99.90;;;;;;4736055;30;20542;-84
2021/05/27 06:30:44;;;;;;;8.57;2.60;;;15.40;99.90;;;;;;4707643;30;20237;-84
2021/05/27 06:33:10;;;;;;;13.85;2.75;;;;;;;;;;4739252;30;20214;-86
2021/05/27 06:35:37;;;;;;;10.07;3.00;;;15.50;99.90;;;;;;4739439;30;20191;-86
2021/05/27 06:38:03;;;;;;;5.82;2.15;;;15.60;99.90;;;;;;4755531;30;20290;-87
2021/05/27 06:40:29;;;;;;;6.03;3.00;;;15.50;99.90;;;;;;4710041;30;20197;-85
2021/05/27 06:42:55;;;;;;;8.65;2.67;;;15.50;99.90;;;;;;4739140;30;20217;-85
2021/05/27 06:45:23;;;;;;;8.07;2.78;;;15.60;99.90;;;;;;4738415;30;20560;-85
2021/05/27 06:47:50;;;;;;;15.85;2.20;;;15.60;99.90;;;;;;4736283;30;20698;-85
2021/05/27 06:50:32;;;;;;;5.22;1.92;;;15.70;99.90;;;;;;4739197;30;20195;-85
2021/05/27 06:53:04;;;;;;;5.38;2.05;;;15.70;99.90;;;;;;4737158;30;20264;-85
2021/05/27 06:55:30;;;;;;;6.18;2.15;;;15.60;99.90;;;;;;4752358;30;20270;-85
2021/05/27 06:57:56;;;;;;;8.60;2.05;;;15.60;99.90;;;;;;4723642;30;20282;-85
2021/05/27 07:00:22;;;;;;;3.55;1.95;;;15.50;99.90;;;;;;4753622;30;20281;-85
2021/05/27 07:02:49;;;;;;;12.15;2.00;;;15.50;99.90;;;;;;4724072;30;20315;-84
2021/05/27 07:05:14;;;;;;;4.57;2.20;;;15.40;99.90;;;;;;4739248;30;20191;-85
2021/05/27 07:07:40;;;;;;;5.10;2.00;;;15.40;99.90;;;;;;4724952;30;20657;-85
2021/05/27 07:10:07;;;;;;;4.32;1.80;;;15.40;99.90;;;;;;4724022;30;20202;-84
2021/05/27 07:12:33;;;;;;;7.15;2.30;;;15.50;99.90;;;;;;4723340;30;20225;-85
2021/05/27 07:14:59;;;;;;;2.90;1.70;;;15.60;99.90;;;;;;4752486;30;20202;-85
2021/05/27 07:17:25;;;;;;;8.30;1.90;;;15.70;99.90;;;;;;4722225;30;20193;-86
2021/05/27 07:19:52;;;;;;;6.47;2.17;;;16.00;99.90;;;;;;4736352;30;20187;-84
2021/05/27 07:22:19;;;;;;;2.78;1.90;;;16.10;99.90;;;;;;4752053;30;20214;-84
2021/05/27 07:24:46;;;;;;;5.80;2.17;;;16.20;99.90;;;;;;4751990;30;20190;-85
2021/05/27 07:27:12;;;;;;;4.85;1.90;;;16.30;99.90;;;;;;4736637;30;20187;-84
2021/05/27 07:29:38;;;;;;;7.65;2.13;;;16.50;99.90;;;;;;4753405;30;20646;-84
2021/05/27 07:32:06;;;;;;;5.82;2.13;;;16.70;99.90;;;;;;4723228;30;20234;-85
2021/05/27 07:34:33;;;;;;;3.25;2.00;;;16.80;99.90;;;;;;4736976;30;20195;-83
2021/05/27 07:36:58;;;;;;;5.00;1.67;;;16.90;99.90;;;;;;4724390;30;20266;-82
2021/05/27 07:39:24;;;;;;;4.65;1.73;;;17.00;99.90;;;;;;4738494;30;20187;-83
2021/05/27 07:41:50;;;;;;;3.00;1.48;;;17.00;99.90;;;;;;4737258;30;20289;-84
2021/05/27 07:44:16;;;;;;;5.78;1.60;;;17.00;99.90;;;;;;4737219;30;20197;-83
2021/05/27 07:46:42;;;;;;;1.83;1.20;;;17.00;99.70;;;;;;4738250;30;20281;-83
2021/05/27 07:49:07;;;;;;;3.65;1.50;;;17.00;98.90;;;;;;4723184;30;20187;-83
2021/05/27 07:51:34;;;;;;;2.25;1.63;;;17.00;99.30;;;;;;4737876;30;20254;-83
2021/05/27 07:53:59;;;;;;;3.83;1.50;;;17.10;98.60;;;;;;4753565;30;20199;-83
2021/05/27 07:56:25;;;;;;;3.83;1.00;;;17.20;97.70;;;;;;4737868;30;20263;-84
2021/05/27 07:58:51;;;;;;;2.47;1.52;;;17.30;97.70;;;;;;4753354;30;20191;-84
2021/05/27 08:01:16;;;;;;;2.92;1.38;;;17.40;97.80;;;;;;4737239;30;20194;-84
2021/05/27 08:03:42;;;;;;;5.20;1.40;;;;;;;;;;4753693;30;20190;-84
2021/05/27 08:06:08;;;;;;;5.50;1.40;;;17.50;97.10;;;;;;4753490;30;20246;-84
2021/05/27 08:08:34;;;;;;;4.30;2.03;;;;;;;;;;4738072;30;20183;-84
2021/05/27 08:11:00;;;;;;;2.55;1.33;;;17.60;95.40;;;;;;4722859;30;20572;-84
2021/05/27 08:13:26;;;;;;;5.88;1.60;;;17.70;94.60;;;;;;4722785;30;20225;-84
2021/05/27 08:15:51;;;;;;;4.35;1.00;;;17.70;95.70;;;;;;4737359;30;20718;-84
2021/05/27 08:18:17;;;;;;;3.40;1.25;;;17.80;94.20;;;;;;4723017;30;20186;-83
2021/05/27 08:20:43;;;;;;;1.27;0.82;;;17.90;92.70;;;;;;4722924;30;20213;-84
2021/05/27 08:23:09;;;;;;;4.72;1.20;;;17.90;92.90;;;;;;4737023;30;20242;-84
2021/05/27 08:25:34;;;;;;;1.70;1.20;;;18.20;93.00;;;;;;4753204;30;20194;-84
2021/05/27 08:28:00;;;;;;;3.22;1.00;;;18.30;91.60;;;;;;4737106;30;20202;-84
2021/05/27 08:30:26;;;;;;;2.22;1.00;;;18.20;90.80;;;;;;4737710;30;20190;-84
2021/05/27 08:32:52;;;;;;;2.28;0.90;;;18.00;91.40;;;;;;4722727;30;20639;-84
2021/05/27 08:35:18;;;;;;;2.45;1.40;;;17.90;92.00;;;;;;4737599;30;20191;-84
2021/05/27 08:37:43;;;;;;;1.33;1.10;;;18.00;92.20;;;;;;4737426;30;20183;-84
2021/05/27 08:40:09;;;;;;;9.32;1.20;;;18.10;91.70;;;;;;4736995;30;20191;-84
2021/05/27 08:42:36;;;;;;;3.22;1.30;;;18.30;91.50;;;;;;4752889;30;20195;-84
2021/05/27 08:45:07;;;;;;;1.20;1.10;;;18.30;90.80;;;;;;4737093;30;20187;-84
2021/05/27 08:47:33;;;;;;;6.28;1.63;;;18.30;92.00;;;;;;4753056;30;20213;-84
2021/05/27 08:50:00;;;;;;;3.83;1.40;;;18.40;92.50;;;;;;4736720;30;20657;-84
2021/05/27 08:52:26;;;;;;;4.18;1.23;;;18.70;91.40;;;;;;4752916;30;20206;-84
2021/05/27 08:54:52;;;;;;;1.90;1.20;;;18.70;90.10;;;;;;4736010;30;20194;-87
2021/05/27 08:57:17;;;;;;;4.13;1.48;;;18.70;90.10;;;;;;4736744;30;20612;-84
2021/05/27 08:59:43;;;;;;;3.58;1.50;;;18.80;91.90;;;;;;4737034;30;20243;-84
2021/05/27 09:02:11;;;;;;;3.00;1.27;;;18.90;90.80;;;;;;4736761;30;20558;-84
2021/05/27 09:04:38;;;;;;;3.17;1.10;;;18.90;87.90;;;;;;4753490;30;20182;-84
2021/05/27 09:07:04;;;;;;;2.15;1.08;;;19.00;87.70;;;;;;4736481;30;20202;-84
2021/05/27 09:09:51;;;;;;;5.90;1.30;;;19.20;87.20;;;;;;4752701;30;20183;-84
2021/05/27 09:12:35;;;;;;;6.70;2.05;;;19.00;86.90;;;;;;4736813;30;20226;-83
2021/05/27 09:15:22;;;;;;;4.57;1.20;;;18.90;86.30;;;;;;4736208;30;20661;-84
2021/05/27 09:17:53;;;;;;;4.72;1.13;;;19.10;86.20;;;;;;4751712;30;20665;-82
2021/05/27 09:20:24;;;;;;;2.20;1.45;;;19.40;88.00;;;;;;4736437;30;20189;-84
2021/05/27 09:23:14;;;;;;;10.35;2.80;;;19.60;87.40;;;;;;4752353;30;20239;-85
2021/05/27 09:25:41;;;;;;;6.68;1.60;;;20.00;86.90;;;;;;4723825;30;20199;-85
2021/05/27 09:28:08;;;;;;;3.17;1.33;;;19.60;83.20;;;;;;4752138;30;20194;-84
2021/05/27 09:30:42;;;;;;;2.88;1.60;;;19.40;87.90;;;;;;4752178;30;20190;-84
2021/05/27 09:33:09;;;;;;;2.75;1.27;;;19.40;88.30;;;;;;4735982;30;20264;-84
2021/05/27 09:35:34;;;;;;;3.40;1.30;;;19.40;89.10;;;;;;4736489;30;20248;-84
2021/05/27 09:38:00;;;;;;;1.70;1.10;;;19.20;86.00;;;;;;4752024;30;20194;-84
2021/05/27 09:40:47;;;;;;;2.63;1.00;;;19.30;86.00;;;;;;4736431;30;20199;-84
2021/05/27 09:43:21;;;;;;;2.20;1.40;;;19.20;84.20;;;;;;4751390;30;20195;-84
2021/05/27 09:46:04;;;;;;;3.83;1.08;;;19.00;84.30;;;;;;4751954;30;20262;-84
2021/05/27 09:48:30;;;;;;;1.42;1.00;;;19.10;85.90;;;;;;4736009;30;20648;-84
2021/05/27 09:50:58;;;;;;;3.70;1.20;;;19.10;83.00;;;;;;4751807;30;20278;-85
2021/05/27 09:53:26;;;;;;;3.83;1.08;;;19.10;82.20;;;;;;4736151;30;20374;-84
2021/05/27 09:55:53;;;;;;;6.40;2.85;;;19.10;83.40;;;;;;4722021;30;20190;-85
2021/05/27 09:58:19;;;;;;;1.70;1.08;;;19.10;84.10;;;;;;4736009;30;20206;-85
2021/05/27 10:00:47;;;;;;;66.20;8.82;;;19.00;82.90;;;;;;4735949;30;20194;-84
2021/05/27 10:03:32;;;;;;;2.70;0.98;;;18.90;81.30;;;;;;4735723;30;20565;-84
2021/05/27 10:06:06;;;;;;;11.77;1.73;;;18.90;81.90;;;;;;4752850;30;20183;-85
2021/05/27 10:08:47;;;;;;;2.75;0.93;;;19.00;79.90;;;;;;4755304;30;20182;-84
2021/05/27 10:11:14;;;;;;;1.10;0.70;;;19.10;77.80;;;;;;4755174;30;20276;-85
2021/05/27 10:13:41;;;;;;;3.47;0.70;;;19.50;79.10;;;;;;4724608;30;20226;-84
2021/05/27 10:16:30;;;;;;;1.20;0.80;;;19.60;78.10;;;;;;4738458;30;20557;-85
2021/05/27 10:18:57;;;;;;;1.23;0.80;;;19.90;75.90;;;;;;4747373;30;20191;-85
2021/05/27 10:21:25;;;;;;;1.15;0.70;;;19.90;75.60;;;;;;4739536;30;20653;-84
2021/05/27 10:23:54;;;;;;;2.10;0.90;;;19.90;73.10;;;;;;4738489;30;20233;-86
2021/05/27 10:26:21;;;;;;;3.28;0.90;;;20.10;73.60;;;;;;4719756;30;20214;-85
2021/05/27 10:28:53;;;;;;;0.95;0.75;;;20.20;73.60;;;;;;4754547;30;20190;-84
2021/05/27 10:31:24;;;;;;;2.35;0.82;;;20.30;72.90;;;;;;4752355;30;20682;-83
2021/05/27 10:33:52;;;;;;;5.53;0.80;;;20.20;70.80;;;;;;4738520;30;20346;-83
2021/05/27 10:36:18;;;;;;;2.47;1.17;;;20.50;71.30;;;;;;4755798;30;20195;-83
2021/05/27 10:38:46;;;;;;;2.67;1.10;;;20.50;71.30;;;;;;4755185;30;20549;-84
2021/05/27 10:41:19;;;;;;;29.20;4.53;;;20.60;71.00;;;;;;4753850;30;20242;-84
2021/05/27 10:44:01;;;;;;;2.03;1.00;;;20.50;72.40;;;;;;4755011;30;20186;-84
2021/05/27 10:46:28;;;;;;;1.42;0.80;;;20.80;71.30;;;;;;4753589;30;20695;-84
2021/05/27 10:48:54;;;;;;;2.08;1.10;;;20.70;70.40;;;;;;4755221;30;20558;-84
2021/05/27 10:51:44;;;;;;;2.22;1.10;;;20.60;70.50;;;;;;4724653;30;20191;-83
2021/05/27 10:54:14;;;;;;;2.00;1.00;;;20.70;73.60;;;;;;4738814;30;20202;-85
2021/05/27 10:56:46;;;;;;;3.03;1.30;;;20.90;69.60;;;;;;4754154;30;20187;-83
2021/05/27 10:59:17;;;;;;;7.13;1.20;;;20.70;70.30;;;;;;4753871;30;20194;-84
2021/05/27 11:01:43;;;;;;;4.22;2.20;;;20.90;69.90;;;;;;4723609;30;20564;-84
2021/05/27 11:04:21;;;;;;;2.92;1.38;;;20.90;69.70;;;;;;4737798;30;20187;-85
2021/05/27 11:06:49;;;;;;;5.45;1.33;;;21.30;73.00;;;;;;4738127;30;20183;-84
2021/05/27 11:09:21;;;;;;;4.15;1.55;;;21.10;72.70;;;;;;4751483;30;20270;-84
2021/05/27 11:12:17;;;;;;;4.75;1.10;;;21.10;72.30;;;;;;4754322;30;20241;-85
2021/05/27 11:14:47;;;;;;;3.40;1.25;;;20.80;72.80;;;;;;4752488;30;20207;-86
2021/05/27 11:17:18;;;;;;;1.95;0.88;;;20.80;73.20;;;;;;4753031;30;20190;-85
2021/05/27 11:27:51;;;;;;;3.78;1.00;;;20.60;72.20;;;;;;4753937;30;20194;-87
2021/05/27 11:30:18;;;;;;;2.78;1.10;;;20.40;71.10;;;;;;4753508;30;20553;-85
2021/05/27 11:32:46;;;;;;;1.63;0.80;;;20.50;73.00;;;;;;4753559;30;20210;-85
2021/05/27 11:35:12;;;;;;;6.45;0.93;;;20.70;70.40;;;;;;4737767;30;20194;-85
2021/05/27 11:37:40;;;;;;;9.10;1.00;;;20.80;67.80;;;;;;4753421;30;20183;-86
2021/05/27 11:40:08;;;;;;;6.50;1.02;;;20.80;69.00;;;;;;4737666;30;20178;-85
2021/05/27 11:42:34;;;;;;;1.20;0.95;;;20.50;70.20;;;;;;4753366;30;20285;-86
2021/05/27 11:45:03;;;;;;;2.83;1.00;;;20.50;70.20;;;;;;4751469;30;20186;-85
2021/05/27 11:47:29;;;;;;;1.55;0.80;;;20.40;70.30;;;;;;4753491;30;20190;-86
2021/05/27 11:50:04;;;;;;;2.33;0.93;;;20.70;70.50;;;;;;4753339;30;20281;-87
2021/05/27 11:52:30;;;;;;;8.75;0.88;;;21.00;69.80;;;;;;4753222;30;20305;-86
2021/05/27 11:54:58;;;;;;;2.08;0.90;;;21.20;67.70;;;;;;4753166;30;20270;-86
2021/05/27 11:57:40;;;;;;;7.13;0.98;;;21.10;67.50;;;;;;4737228;30;20217;-87
2021/05/27 12:00:08;;;;;;;2.03;0.70;;;21.20;65.40;;;;;;4737076;30;20233;-85
2021/05/27 12:02:50;;;;;;;0.73;0.70;;;20.90;66.20;;;;;;4736676;30;20275;-90
2021/05/27 12:05:32;;;;;;;2.40;0.60;;;20.70;69.50;;;;;;4736308;30;20270;-86
2021/05/27 12:08:13;;;;;;;1.27;0.68;;;20.30;67.60;;;;;;4737502;30;20216;-86
2021/05/27 12:10:49;;;;;;;1.60;0.77;;;20.20;69.30;;;;;;4753619;30;20693;-85
2021/05/27 12:13:18;;;;;;;1.58;0.90;;;19.90;69.40;;;;;;4749109;30;20742;-85
2021/05/27 12:15:44;;;;;;;5.38;1.33;;;19.80;70.60;;;;;;4753239;30;20187;-85
2021/05/27 12:18:18;;;;;;;2.53;0.90;;;19.80;71.60;;;;;;4753224;30;20229;-86
2021/05/27 12:20:48;;;;;;;2.33;0.80;;;19.90;71.50;;;;;;4753566;30;20183;-88
2021/05/27 12:23:16;;;;;;;128.93;15.23;;;20.50;71.90;;;;;;4753059;30;20260;-87
2021/05/27 12:25:44;;;;;;;2.35;0.80;;;20.20;71.30;;;;;;4753142;30;20183;-85
2021/05/27 12:28:16;;;;;;;1.10;0.73;;;20.20;71.10;;;;;;4737384;30;20191;-85
2021/05/27 12:30:48;;;;;;;3.20;0.70;;;19.90;70.80;;;;;;4753301;30;20214;-87
2021/05/27 12:33:24;;;;;;;4.25;0.95;;;19.80;72.60;;;;;;4736760;30;20256;-85
2021/05/27 12:35:51;;;;;;;3.95;0.93;;;19.90;73.10;;;;;;4736819;30;20203;-85
2021/05/27 12:38:27;;;;;;;1.50;0.85;;;19.90;73.20;;;;;;4736335;30;20183;-86
2021/05/27 12:41:00;;;;;;;0.90;0.75;;;20.00;72.40;;;;;;4752461;30;20724;-85
2021/05/27 12:43:29;;;;;;;1.15;0.80;;;19.90;73.70;;;;;;4752389;30;20190;-85
2021/05/27 12:45:56;;;;;;;1.45;1.05;;;20.00;72.50;;;;;;4752726;30;20247;-85
2021/05/27 12:48:26;;;;;;;6.93;1.60;;;19.90;72.40;;;;;;4736504;30;20198;-86
2021/05/27 12:51:00;;;;;;;1.45;0.75;;;19.90;73.70;;;;;;4736727;30;20190;-84
2021/05/27 12:53:27;;;;;;;0.65;0.65;;;19.90;73.40;;;;;;4736618;30;20242;-86
2021/05/27 12:55:55;;;;;;;2.20;0.90;;;19.80;73.20;;;;;;4736752;30;20198;-85
2021/05/27 12:58:31;;;;;;;0.82;0.70;;;19.90;73.90;;;;;;4752435;30;20274;-85
2021/05/27 13:00:57;;;;;;;1.13;0.82;;;19.90;71.60;;;;;;4752663;30;20217;-85
2021/05/27 13:03:23;;;;;;;3.13;0.80;;;;;;;;;;4735989;30;20666;-85
2021/05/27 13:06:02;;;;;;;2.95;0.80;;;19.80;68.90;;;;;;4752203;30;20189;-84
2021/05/27 13:08:33;;;;;;;0.70;0.68;;;19.90;72.40;;;;;;4752544;30;20265;-85